createdAt,value
2022-10-06T00:01:48.578Z,8.60
2022-10-06T00:06:40.258Z,8.57
2022-10-06T00:11:31.969Z,8.59
2022-10-06T00:16:24.420Z,8.58
2022-10-06T00:21:16.889Z,8.57
2022-10-06T00:26:17.750Z,8.55
2022-10-06T00:31:09.409Z,8.57
2022-10-06T00:36:01.170Z,8.57
2022-10-06T00:40:52.897Z,8.55
2022-10-06T00:45:48.802Z,8.56
2022-10-06T00:50:41.257Z,8.55
2022-10-06T00:55:33.006Z,8.55
2022-10-06T01:00:25.171Z,8.57
2022-10-06T01:05:25.782Z,8.54
2022-10-06T01:10:17.396Z,8.51
2022-10-06T01:15:10.385Z,8.49
2022-10-06T01:20:13.043Z,8.46
2022-10-06T01:25:06.716Z,8.43
2022-10-06T01:29:59.457Z,8.39
2022-10-06T01:34:51.052Z,8.36
2022-10-06T01:39:43.734Z,8.34
2022-10-06T01:44:35.965Z,8.32
2022-10-06T01:49:27.684Z,8.31
2022-10-06T01:54:19.293Z,8.28
2022-10-06T01:59:10.986Z,8.30
2022-10-06T02:04:02.615Z,8.25
2022-10-06T02:08:54.257Z,8.24
2022-10-06T02:13:46.678Z,8.21
2022-10-06T02:18:38.498Z,8.22
2022-10-06T02:23:30.885Z,8.23
2022-10-06T02:28:22.728Z,8.23
2022-10-06T02:33:14.376Z,8.25
2022-10-06T02:38:06.069Z,8.27
2022-10-06T02:42:58.378Z,8.24
2022-10-06T02:47:50.073Z,8.22
2022-10-06T02:52:42.942Z,8.24
2022-10-06T02:57:34.564Z,8.24
2022-10-06T03:02:26.302Z,8.24
2022-10-06T03:07:18.941Z,8.23
2022-10-06T03:12:10.584Z,8.21
2022-10-06T03:17:02.288Z,8.20
2022-10-06T03:21:53.956Z,8.20
2022-10-06T03:26:47.879Z,8.22
2022-10-06T03:31:40.327Z,8.22
2022-10-06T03:36:33.693Z,8.23
2022-10-06T03:41:28.101Z,8.26
2022-10-06T03:46:23.383Z,8.28
2022-10-06T03:51:21.601Z,8.32
2022-10-06T03:56:17.495Z,8.34
2022-10-06T04:01:23.488Z,8.33
2022-10-06T04:06:19.438Z,8.34
2022-10-06T04:11:21.486Z,8.34
2022-10-06T04:16:20.431Z,8.37
2022-10-06T04:21:13.306Z,8.38
2022-10-06T04:26:11.493Z,8.38
2022-10-06T04:31:03.029Z,8.35
2022-10-06T04:36:03.700Z,8.34
2022-10-06T04:40:57.417Z,8.34
2022-10-06T04:45:57.784Z,8.33
2022-10-06T04:50:57.261Z,8.34
2022-10-06T04:56:13.965Z,8.35
2022-10-06T05:01:32.950Z,8.33
2022-10-06T05:06:32.948Z,8.31
2022-10-06T05:11:26.106Z,8.33
2022-10-06T05:16:18.585Z,8.34
2022-10-06T05:21:16.173Z,8.34
2022-10-06T05:26:08.536Z,8.33
2022-10-06T05:31:00.152Z,8.32
2022-10-06T05:35:53.776Z,8.32
2022-10-06T05:40:45.349Z,8.35
2022-10-06T05:45:37.196Z,8.34
2022-10-06T05:50:28.829Z,8.39
2022-10-06T05:55:20.633Z,8.43
2022-10-06T06:00:12.678Z,8.49
2022-10-06T06:05:04.826Z,8.51
2022-10-06T06:09:56.484Z,8.54
2022-10-06T06:15:07.161Z,8.58
2022-10-06T06:19:58.883Z,8.58
2022-10-06T06:24:50.482Z,8.64
2022-10-06T06:29:42.250Z,8.65
2022-10-06T06:34:33.837Z,8.68
2022-10-06T06:39:25.636Z,8.73
2022-10-06T06:44:17.814Z,8.81
2022-10-06T06:49:12.102Z,8.86
2022-10-06T06:54:05.404Z,8.93
2022-10-06T06:58:57.085Z,9.02
2022-10-06T07:03:58.061Z,9.10
2022-10-06T07:08:50.346Z,9.17
2022-10-06T07:13:42.679Z,9.24
2022-10-06T07:18:53.254Z,9.32
2022-10-06T07:24:05.279Z,9.40
2022-10-06T07:29:01.061Z,9.56
2022-10-06T07:33:53.031Z,9.90
2022-10-06T07:38:44.658Z,10.52
2022-10-06T07:43:36.322Z,11.11
2022-10-06T07:48:27.867Z,11.71
2022-10-06T07:53:19.990Z,12.20
2022-10-06T07:58:13.923Z,12.72
2022-10-06T08:03:05.756Z,13.14
2022-10-06T08:07:58.222Z,13.51
2022-10-06T08:12:49.890Z,13.94
2022-10-06T08:17:41.887Z,14.29
2022-10-06T08:22:33.844Z,14.61
2022-10-06T08:27:28.888Z,14.59
2022-10-06T08:32:21.521Z,14.66
2022-10-06T08:37:20.153Z,15.16
2022-10-06T08:42:16.927Z,15.55
2022-10-06T08:47:20.650Z,15.56
2022-10-06T08:52:27.282Z,15.90
2022-10-06T08:57:34.160Z,16.42
2022-10-06T09:02:33.129Z,16.89
2022-10-06T09:08:02.726Z,17.06
2022-10-06T09:13:09.549Z,17.35
2022-10-06T09:18:10.738Z,17.64
2022-10-06T09:23:06.570Z,17.78
2022-10-06T09:27:59.955Z,18.13
2022-10-06T09:33:03.571Z,18.09
2022-10-06T09:38:08.627Z,17.61
2022-10-06T09:43:02.269Z,17.17
2022-10-06T09:47:54.045Z,16.79
2022-10-06T09:52:57.651Z,16.52
2022-10-06T09:57:52.336Z,16.34
2022-10-06T10:02:44.062Z,16.33
2022-10-06T10:07:36.559Z,16.31
2022-10-06T10:12:28.357Z,16.56
2022-10-06T10:17:33.560Z,17.15
2022-10-06T10:22:36.041Z,17.66
2022-10-06T10:27:52.264Z,17.96
2022-10-06T10:32:54.068Z,18.08
2022-10-06T10:38:04.066Z,18.11
2022-10-06T10:43:23.759Z,18.29
2022-10-06T10:48:47.513Z,18.45
2022-10-06T10:53:49.772Z,18.49
2022-10-06T10:58:43.740Z,18.35
2022-10-06T11:03:35.380Z,18.28
2022-10-06T11:08:38.122Z,18.26
2022-10-06T11:13:52.779Z,18.65
2022-10-06T11:19:02.782Z,18.64
2022-10-06T11:24:03.128Z,18.39
2022-10-06T11:29:16.257Z,18.36
2022-10-06T11:34:10.089Z,18.39
2022-10-06T11:39:15.718Z,18.05
2022-10-06T11:44:07.363Z,17.92
2022-10-06T11:49:29.771Z,17.93
2022-10-06T11:54:47.480Z,18.15
2022-10-06T11:59:39.217Z,18.38
2022-10-06T12:04:30.934Z,18.36
2022-10-06T12:09:46.147Z,18.44
2022-10-06T12:16:32.283Z,18.54
2022-10-06T12:20:08.056Z,18.64
2022-10-06T12:25:26.779Z,18.53
2022-10-06T12:30:21.274Z,18.31
2022-10-06T12:35:32.690Z,18.16
2022-10-06T12:40:48.421Z,18.19
2022-10-06T12:45:46.394Z,18.07
2022-10-06T12:50:39.234Z,17.98
2022-10-06T12:55:47.323Z,17.89
2022-10-06T13:00:43.513Z,17.80
2022-10-06T13:05:36.595Z,17.68
2022-10-06T13:10:29.626Z,17.53
2022-10-06T13:15:23.886Z,17.43
2022-10-06T13:21:02.840Z,17.35
2022-10-06T13:25:58.981Z,17.25
2022-10-06T13:30:52.476Z,17.20
2022-10-06T13:35:44.858Z,17.13
2022-10-06T13:40:45.241Z,17.04
2022-10-06T13:45:42.497Z,17.02
2022-10-06T13:50:34.796Z,16.95
2022-10-06T13:55:29.135Z,16.93
2022-10-06T14:00:26.656Z,16.95
2022-10-06T14:05:37.281Z,16.88
2022-10-06T14:10:55.394Z,17.05
2022-10-06T14:15:50.482Z,17.07
2022-10-06T14:20:46.396Z,17.04
2022-10-06T14:25:38.123Z,17.07
2022-10-06T14:30:29.803Z,17.15
2022-10-06T14:35:21.724Z,17.12
2022-10-06T14:40:13.833Z,17.18
2022-10-06T14:45:05.867Z,17.13
2022-10-06T14:49:57.534Z,17.12
2022-10-06T14:54:49.337Z,17.08
2022-10-06T14:59:41.116Z,17.08
2022-10-06T15:04:32.884Z,17.05
2022-10-06T15:09:24.861Z,17.12
2022-10-06T15:14:16.964Z,17.14
2022-10-06T15:19:09.274Z,17.06
2022-10-06T15:24:03.952Z,17.05
2022-10-06T15:29:01.872Z,16.92
2022-10-06T15:33:55.138Z,16.82
2022-10-06T15:38:47.384Z,16.81
2022-10-06T15:43:55.302Z,16.76
2022-10-06T15:48:46.964Z,16.68
2022-10-06T15:53:38.661Z,16.68
2022-10-06T15:58:30.577Z,16.68
2022-10-06T16:03:40.800Z,16.62
2022-10-06T16:08:34.871Z,16.57
2022-10-06T16:13:26.487Z,16.51
2022-10-06T16:18:18.269Z,16.41
2022-10-06T16:23:10.019Z,16.35
2022-10-06T16:28:01.735Z,16.25
2022-10-06T16:32:53.540Z,16.17
2022-10-06T16:37:49.761Z,16.10
2022-10-06T16:42:43.396Z,16.05
2022-10-06T16:47:35.044Z,16.02
2022-10-06T16:52:26.740Z,15.98
2022-10-06T16:57:18.505Z,15.93
2022-10-06T17:02:10.201Z,15.82
2022-10-06T17:07:02.291Z,15.75
2022-10-06T17:12:02.130Z,15.68
2022-10-06T17:16:58.656Z,15.63
2022-10-06T17:21:57.442Z,15.55
2022-10-06T17:26:50.351Z,15.50
2022-10-06T17:31:43.314Z,15.45
2022-10-06T17:36:38.047Z,15.40
2022-10-06T17:41:32.718Z,15.33
2022-10-06T17:46:25.614Z,15.29
2022-10-06T17:51:19.754Z,15.24
2022-10-06T17:56:11.972Z,15.16
2022-10-06T18:01:12.741Z,15.08
2022-10-06T18:06:05.545Z,15.08
2022-10-06T18:11:16.699Z,15.02
2022-10-06T18:16:22.586Z,14.98
2022-10-06T18:21:15.114Z,14.92
2022-10-06T18:26:06.779Z,14.91
2022-10-06T18:30:58.521Z,14.89
2022-10-06T18:36:14.591Z,14.86
2022-10-06T18:41:10.200Z,14.78
2022-10-06T18:46:22.514Z,14.75
2022-10-06T18:51:14.206Z,14.71
2022-10-06T18:56:07.266Z,14.68
2022-10-06T19:01:04.493Z,14.65
2022-10-06T19:05:56.214Z,14.63
2022-10-06T19:11:08.091Z,14.54
2022-10-06T19:16:00.058Z,14.50
2022-10-06T19:20:51.978Z,14.44
2022-10-06T19:25:44.133Z,14.36
2022-10-06T19:30:35.811Z,14.33
2022-10-06T19:35:27.557Z,14.31
2022-10-06T19:40:19.191Z,14.32
2022-10-06T19:45:12.076Z,14.29
2022-10-06T19:50:10.312Z,14.25
2022-10-06T19:55:03.918Z,14.25
2022-10-06T19:59:55.631Z,14.20
2022-10-06T20:04:47.240Z,14.17
2022-10-06T20:09:39.045Z,14.18
2022-10-06T20:14:30.744Z,14.20
2022-10-06T20:19:22.538Z,14.15
2022-10-06T20:24:24.853Z,14.12
2022-10-06T20:29:22.861Z,14.10
2022-10-06T20:34:16.047Z,14.08
2022-10-06T20:39:30.469Z,14.03
2022-10-06T20:44:22.652Z,14.02
2022-10-06T20:49:18.155Z,13.99
2022-10-06T20:54:11.325Z,13.94
2022-10-06T20:59:03.751Z,13.92
2022-10-06T21:03:55.435Z,13.93
2022-10-06T21:08:47.959Z,13.96
2022-10-06T21:13:40.845Z,14.00
2022-10-06T21:18:33.001Z,14.02
2022-10-06T21:23:24.641Z,14.00
2022-10-06T21:28:16.442Z,13.99
2022-10-06T21:33:08.299Z,13.96
2022-10-06T21:37:59.997Z,13.94
2022-10-06T21:42:51.674Z,13.89
2022-10-06T21:47:43.490Z,13.88
2022-10-06T21:52:35.246Z,13.87
2022-10-06T21:57:26.929Z,13.86
2022-10-06T22:02:18.623Z,13.83
2022-10-06T22:07:10.373Z,13.83
2022-10-06T22:12:02.196Z,13.78
2022-10-06T22:16:53.873Z,13.77
2022-10-06T22:21:48.024Z,13.73
2022-10-06T22:26:41.458Z,13.71
2022-10-06T22:31:33.527Z,13.66
2022-10-06T22:36:26.626Z,13.65
2022-10-06T22:41:18.550Z,13.61
2022-10-06T22:46:11.713Z,13.58
2022-10-06T22:51:04.443Z,13.53
2022-10-06T22:55:56.041Z,13.50
2022-10-06T23:00:47.712Z,13.46
2022-10-06T23:05:40.035Z,13.42
2022-10-06T23:10:33.512Z,13.36
2022-10-06T23:15:26.429Z,13.32
2022-10-06T23:20:20.365Z,13.31
2022-10-06T23:25:12.168Z,13.26
2022-10-06T23:30:05.891Z,13.24
2022-10-06T23:34:57.554Z,13.20
2022-10-06T23:39:49.224Z,13.13
2022-10-06T23:44:40.956Z,13.11
2022-10-06T23:49:35.328Z,13.10
2022-10-06T23:54:27.420Z,13.10
2022-10-06T23:59:22.933Z,13.11
